Time;durP1;ratioP1;P1;durP2;ratioP2;P2;SDS_P1;SDS_P2;PMS_P1;PMS_P2;Temp;Humidity;BMP_temperature;BMP_pressure;BME280_temperature;BME280_humidity;BME280_pressure;Samples;Min_cycle;Max_cycle;Signal;HPM_P1;HPM_P2
2022/07/21 00:00:57;;;;;;;9.00;8.10;;;;;;;20.63;70.90;101672.75;5014957;28;20052;-46
2022/07/21 00:03:22;;;;;;;9.48;8.57;;;;;;;20.63;70.92;101652.03;5013958;28;20273;-47
2022/07/21 00:05:48;;;;;;;10.00;8.48;;;;;;;20.58;71.05;101659.72;5014871;28;20044;-48
2022/07/21 00:08:13;;;;;;;9.00;8.10;;;;;;;20.52;71.71;101661.22;5021238;28;20026;-46
2022/07/21 00:10:39;;;;;;;9.18;8.20;;;;;;;20.48;72.21;101672.50;5015702;28;20296;-45
2022/07/21 00:13:04;;;;;;;9.52;8.30;;;;;;;20.47;71.74;101671.66;5015832;28;20341;-46
2022/07/21 00:15:30;;;;;;;9.80;7.93;;;;;;;20.42;72.33;101671.31;5013541;28;20084;-45
2022/07/21 00:17:56;;;;;;;11.55;8.55;;;;;;;20.41;71.64;101661.50;5011880;28;20029;-45
2022/07/21 00:20:21;;;;;;;9.35;8.35;;;;;;;20.34;72.01;101647.00;5013191;28;20057;-46
2022/07/21 00:22:47;;;;;;;8.80;7.95;;;;;;;20.33;72.16;101659.66;5012913;28;20077;-46
2022/07/21 00:25:14;;;;;;;9.52;7.53;;;;;;;20.31;72.58;101661.63;5013394;28;20014;-47
2022/07/21 00:27:40;;;;;;;9.57;8.63;;;;;;;20.29;72.78;101668.22;5013741;28;20404;-45
2022/07/21 00:30:08;;;;;;;10.00;8.45;;;;;;;20.24;72.64;101670.56;5010974;28;20094;-46
2022/07/21 00:32:33;;;;;;;9.53;7.93;;;;;;;20.23;72.46;101660.75;5012668;28;20061;-46
2022/07/21 00:34:59;;;;;;;10.15;8.63;;;;;;;20.21;72.72;101658.22;5012569;28;20030;-45
2022/07/21 00:37:25;;;;;;;10.98;8.63;;;;;;;20.13;73.57;101661.75;5011184;28;20095;-46
2022/07/21 00:39:51;;;;;;;9.93;8.40;;;;;;;20.13;73.19;101674.38;5012152;28;20342;-47
2022/07/21 00:42:23;;;;;;;10.40;8.50;;;;;;;20.14;72.75;101671.50;5011930;28;20026;-44
2022/07/21 00:44:48;;;;;;;9.30;8.40;;;;;;;20.13;72.40;101669.84;5011048;28;20441;-44
2022/07/21 00:47:14;;;;;;;9.43;8.43;;;;;;;20.11;72.57;101676.38;4994626;28;20048;-45
2022/07/21 00:49:40;;;;;;;9.50;8.50;;;;;;;20.08;72.98;101665.91;5001529;28;20115;-45
2022/07/21 00:52:05;;;;;;;9.95;8.80;;;;;;;20.07;73.39;101673.16;5003093;28;20019;-44
2022/07/21 00:54:31;;;;;;;9.57;8.57;;;;;;;20.03;73.51;101663.69;5029991;28;20397;-45
2022/07/21 00:56:56;;;;;;;9.80;8.80;;;;;;;19.99;73.79;101669.59;5031682;28;20355;-46
2022/07/21 00:59:22;;;;;;;11.52;8.95;;;;;;;19.95;73.65;101667.19;5032580;28;20779;-44
2022/07/21 01:01:47;;;;;;;9.52;8.63;;;;;;;19.94;73.55;101665.50;5031247;28;20037;-45
2022/07/21 01:04:12;;;;;;;10.03;9.00;;;;;;;19.94;73.90;101653.88;5034224;28;20031;-44
2022/07/21 01:06:38;;;;;;;11.07;8.63;;;;;;;19.91;74.45;101651.50;5031677;28;20327;-45
2022/07/21 01:09:03;;;;;;;10.30;9.20;;;;;;;19.87;73.88;101653.66;5033727;28;20292;-45
2022/07/21 01:11:30;;;;;;;10.75;9.15;;;;;;;19.88;74.27;101644.56;5030210;28;20045;-44
2022/07/21 01:13:56;;;;;;;12.82;9.35;;;;;;;19.80;75.01;101647.22;5033309;28;20035;-46
2022/07/21 01:16:21;;;;;;;10.57;9.25;;;;;;;19.78;74.54;101649.22;5031769;28;20037;-45
2022/07/21 01:18:46;;;;;;;11.18;9.05;;;;;;;19.82;74.85;101642.50;5034816;28;20025;-46
2022/07/21 01:21:31;;;;;;;13.60;9.10;;;;;;;19.80;74.27;101644.53;5036552;28;20026;-46
2022/07/21 01:23:56;;;;;;;9.63;8.68;;;;;;;19.77;74.60;101645.69;5031623;28;20034;-45
2022/07/21 01:26:22;;;;;;;9.95;8.95;;;;;;;19.75;75.11;101647.69;5030212;28;20108;-44
2022/07/21 01:28:48;;;;;;;12.75;10.30;;;;;;;19.73;74.96;101640.72;5032372;28;20060;-45
2022/07/21 01:31:13;;;;;;;11.65;9.75;;;;;;;19.73;74.07;101641.59;5035861;28;20040;-46
2022/07/21 01:33:39;;;;;;;11.57;9.13;;;;;;;19.71;74.99;101640.88;5037137;28;20030;-45
2022/07/21 01:36:04;;;;;;;14.32;10.13;;;;;;;19.67;74.94;101646.75;5035955;28;20033;-47
2022/07/21 01:41:34;;;;;;;12.18;9.48;;;;;;;19.65;74.63;101644.22;5030957;28;20072;-45
2022/07/21 01:44:03;;;;;;;12.55;9.98;;;;;;;19.60;75.91;101635.75;5034019;28;20073;-44
2022/07/21 01:46:31;;;;;;;11.15;9.98;;;;;;;19.58;75.53;101643.16;5032436;28;20391;-45
2022/07/21 01:48:56;;;;;;;11.40;9.65;;;;;;;19.56;75.82;101643.31;5030610;28;20460;-44
2022/07/21 01:51:22;;;;;;;11.93;10.32;;;;;;;19.57;75.60;101641.47;5031836;28;20112;-45
2022/07/21 01:53:47;;;;;;;12.30;10.27;;;;;;;19.56;75.62;101647.84;5039134;28;20129;-45
2022/07/21 01:56:13;;;;;;;11.32;10.13;;;;;;;19.57;75.70;101647.69;5033411;28;20053;-43
2022/07/21 01:58:38;;;;;;;11.77;10.50;;;;;;;19.57;75.91;101653.09;5034042;28;20474;-46
2022/07/21 02:01:03;;;;;;;11.93;10.82;;;;;;;19.52;76.46;101650.03;5032459;28;20363;-44
2022/07/21 02:03:29;;;;;;;10.65;9.55;;;;;;;19.53;75.98;101648.16;5035261;28;20457;-44
2022/07/21 02:06:01;;;;;;;11.00;9.90;;;;;;;19.52;75.55;101641.09;5032454;28;20026;-47
2022/07/21 02:08:26;;;;;;;11.50;10.40;;;;;;;19.47;76.58;101641.56;5031944;28;20060;-45
2022/07/21 02:10:51;;;;;;;11.43;10.25;;;;;;;19.52;76.27;101638.41;5031343;28;20072;-45
2022/07/21 02:13:16;;;;;;;12.60;10.43;;;;;;;19.49;76.67;101657.56;5031273;28;20467;-47
2022/07/21 02:15:42;;;;;;;11.63;10.43;;;;;;;19.45;76.43;101650.78;5031096;28;20077;-44
2022/07/21 02:18:07;;;;;;;13.73;10.27;;;;;;;19.41;76.74;101642.19;5032242;28;20287;-45
2022/07/21 02:20:32;;;;;;;12.43;11.13;;;;;;;19.38;77.51;101637.09;5031596;28;20045;-44
2022/07/21 02:22:58;;;;;;;12.63;11.33;;;;;;;19.36;77.71;101641.81;5030117;28;20029;-46
2022/07/21 02:25:23;;;;;;;11.93;10.73;;;;;;;19.40;77.15;101640.47;5024765;28;20395;-46
2022/07/21 02:27:48;;;;;;;13.13;10.73;;;;;;;19.40;77.35;101635.97;5041496;28;20788;-45
2022/07/21 02:30:14;;;;;;;13.90;10.93;;;;;;;19.38;77.40;101632.59;5036257;28;20029;-45
2022/07/21 02:32:39;;;;;;;12.52;10.73;;;;;;;19.37;77.24;101628.19;5032341;28;20272;-46
2022/07/21 02:35:05;;;;;;;12.85;11.55;;;;;;;19.38;77.30;101627.19;5032051;28;20061;-45
2022/07/21 02:37:31;;;;;;;12.60;11.30;;;;;;;19.35;77.75;101627.50;5031499;28;20440;-46
2022/07/21 02:39:56;;;;;;;13.63;12.18;;;;;;;19.30;78.19;101627.13;5032213;28;20057;-45
2022/07/21 02:42:22;;;;;;;13.10;11.70;;;;;;;19.35;77.75;101634.72;5032269;28;20025;-45
2022/07/21 02:44:47;;;;;;;12.95;11.68;;;;;;;19.34;78.02;101631.19;5014254;28;20030;-44
2022/07/21 02:47:12;;;;;;;14.18;12.38;;;;;;;19.31;77.56;101631.50;5032966;28;20105;-46
2022/07/21 02:49:38;;;;;;;13.50;11.97;;;;;;;19.35;77.36;101624.81;5032779;28;20052;-46
2022/07/21 02:52:04;;;;;;;17.38;12.32;;;;;;;19.30;78.04;101627.13;5032863;28;20310;-46
2022/07/21 02:54:30;;;;;;;14.68;12.35;;;;;;;19.32;78.13;101619.72;5030919;28;20638;-44
2022/07/21 02:56:55;;;;;;;14.27;12.27;;;;;;;19.32;78.34;101625.13;5032130;28;20065;-48
2022/07/21 02:59:20;;;;;;;13.88;12.30;;;;;;;19.38;77.29;101623.63;5032064;28;20034;-45
2022/07/21 03:01:47;;;;;;;13.57;12.20;;;;;;;19.33;78.44;101623.25;5033582;28;20068;-46
2022/07/21 03:04:12;;;;;;;15.10;12.80;;;;;;;19.35;77.50;101626.63;5035254;28;20044;-44
2022/07/21 03:06:37;;;;;;;16.02;13.20;;;;;;;19.35;77.85;101621.25;5035172;28;20029;-45
2022/07/21 03:09:03;;;;;;;16.23;13.63;;;;;;;19.36;77.92;101628.34;5035543;28;20056;-46
2022/07/21 03:11:28;;;;;;;16.77;13.43;;;;;;;19.35;78.17;101622.13;5034429;28;20545;-47
2022/07/21 03:13:54;;;;;;;14.32;12.98;;;;;;;19.38;77.34;101626.31;5035346;28;20091;-45
2022/07/21 03:16:19;;;;;;;16.42;12.90;;;;;;;19.39;76.88;101618.09;5035497;28;20034;-45
2022/07/21 03:18:44;;;;;;;16.77;13.27;;;;;;;19.39;78.14;101618.09;5034443;28;20033;-45
2022/07/21 03:21:09;;;;;;;14.63;13.07;;;;;;;19.39;77.31;101614.56;5034808;28;20040;-46
2022/07/21 03:23:35;;;;;;;14.77;13.25;;;;;;;19.37;77.51;101620.09;5034240;28;20040;-46
2022/07/21 03:26:00;;;;;;;15.88;13.13;;;;;;;19.39;77.15;101614.56;5016838;28;20072;-47
2022/07/21 03:28:25;;;;;;;15.80;13.10;;;;;;;19.35;77.79;101613.16;5034537;28;20526;-45
2022/07/21 03:30:51;;;;;;;14.88;13.15;;;;;;;19.36;77.64;101622.94;5033808;28;20273;-45
2022/07/21 03:33:16;;;;;;;14.25;12.63;;;;;;;19.34;77.39;101620.41;5036697;28;20078;-47
2022/07/21 03:35:42;;;;;;;15.82;12.73;;;;;;;19.37;77.23;101620.09;5037221;28;20128;-45
2022/07/21 03:38:08;;;;;;;14.85;12.82;;;;;;;19.38;77.22;101627.19;5032512;28;20091;-45
2022/07/21 03:40:35;;;;;;;13.80;12.20;;;;;;;19.40;77.01;101624.31;5032873;28;20063;-46
2022/07/21 03:43:02;;;;;;;14.82;12.30;;;;;;;19.36;77.46;101620.25;5034156;28;20075;-46
2022/07/21 03:45:30;;;;;;;16.08;13.23;;;;;;;19.34;77.42;101624.97;5044021;28;20029;-45
2022/07/21 03:47:57;;;;;;;14.52;12.82;;;;;;;19.31;78.12;101628.81;5043429;28;20025;-47
2022/07/21 03:50:22;;;;;;;14.40;11.57;;;;;;;19.33;76.95;101626.78;5033459;28;20040;-47
2022/07/21 03:52:47;;;;;;;17.17;12.40;;;;;;;19.33;76.84;101634.88;5037591;28;20050;-45
2022/07/21 03:55:20;;;;;;;15.25;11.75;;;;;;;19.34;78.04;101624.97;5032748;28;20024;-46
2022/07/21 03:57:53;;;;;;;18.05;12.60;;;;;;;19.28;78.12;101634.50;5032681;28;20496;-45
2022/07/21 04:00:33;;;;;;;14.30;12.27;;;;;;;19.36;77.24;101629.19;5031667;28;20403;-46
2022/07/21 04:02:59;;;;;;;15.73;11.30;;;;;;;19.34;77.04;101633.88;5032963;28;20132;-46
2022/07/21 04:05:25;;;;;;;14.70;11.48;;;;;;;19.33;76.90;101644.81;5034170;28;20029;-45
2022/07/21 04:07:51;;;;;;;14.27;11.07;;;;;;;19.34;77.14;101652.72;5049323;28;20400;-48
2022/07/21 04:10:19;;;;;;;12.73;11.27;;;;;;;19.31;77.56;101646.81;5033526;28;20145;-47
2022/07/21 04:12:45;;;;;;;15.20;11.67;;;;;;;19.35;77.71;101656.25;5033716;28;20083;-47
2022/07/21 04:15:11;;;;;;;15.35;11.68;;;;;;;19.34;77.52;101660.81;5031980;28;20025;-45
2022/07/21 04:17:37;;;;;;;15.80;11.27;;;;;;;19.35;77.42;101651.75;5018164;28;20084;-46
2022/07/21 04:20:04;;;;;;;15.85;12.00;;;;;;;19.33;78.04;101651.03;5040440;28;20064;-46
2022/07/21 04:22:29;;;;;;;13.00;11.30;;;;;;;19.35;78.22;101642.78;5032287;28;20095;-46
2022/07/21 04:24:54;;;;;;;14.40;11.27;;;;;;;19.33;77.33;101642.94;5031970;28;20472;-45
2022/07/21 04:27:19;;;;;;;15.33;11.13;;;;;;;19.32;78.39;101643.97;5031712;28;20029;-49
2022/07/21 04:29:45;;;;;;;16.20;11.48;;;;;;;19.32;77.78;101638.59;5031353;28;20292;-46
2022/07/21 04:32:10;;;;;;;14.32;11.05;;;;;;;19.31;78.15;101641.44;5031852;28;20044;-46
2022/07/21 04:34:36;;;;;;;16.52;10.63;;;;;;;19.30;78.34;101631.66;5032363;28;20267;-44
2022/07/21 04:37:01;;;;;;;16.10;10.73;;;;;;;19.31;78.50;101631.50;5037769;28;20026;-46
2022/07/21 04:39:27;;;;;;;13.43;10.68;;;;;;;19.31;77.53;101630.66;5034150;28;20758;-46
2022/07/21 04:41:53;;;;;;;16.27;10.88;;;;;;;19.27;78.20;101640.03;5016862;28;20387;-44
2022/07/21 04:44:18;;;;;;;15.02;11.68;;;;;;;19.30;77.58;101634.34;5035203;28;20025;-45
2022/07/21 04:46:43;;;;;;;16.48;11.07;;;;;;;19.25;78.56;101642.88;5033202;28;20025;-46
2022/07/21 04:49:08;;;;;;;14.07;11.10;;;;;;;19.28;79.77;101641.75;5033597;28;20033;-47
2022/07/21 04:51:34;;;;;;;15.70;11.60;;;;;;;19.26;79.76;101646.44;5030783;28;20025;-48
2022/07/21 04:53:59;;;;;;;13.00;10.50;;;;;;;19.26;80.29;101647.28;5038417;28;20049;-46
2022/07/21 04:56:24;;;;;;;14.23;11.73;;;;;;;19.22;81.36;101646.75;5034806;28;20851;-45
2022/07/21 04:58:49;;;;;;;17.80;12.23;;;;;;;19.23;80.27;101643.06;5032524;28;20056;-46
2022/07/21 05:01:17;;;;;;;18.40;11.70;;;;;;;19.20;79.99;101645.19;5030670;28;20405;-45
2022/07/21 05:03:43;;;;;;;14.23;11.00;;;;;;;19.20;80.19;101651.44;5032014;28;20268;-47
2022/07/21 05:06:08;;;;;;;13.18;10.68;;;;;;;19.20;81.07;101647.88;5038807;28;20031;-46
2022/07/21 05:08:33;;;;;;;15.10;11.10;;;;;;;19.20;79.98;101647.88;5034484;28;20018;-46
2022/07/21 05:10:58;;;;;;;13.48;11.30;;;;;;;19.19;80.47;101654.28;5032876;28;20327;-45
2022/07/21 05:13:24;;;;;;;14.60;11.10;;;;;;;19.18;79.83;101647.19;5035234;28;20026;-47
2022/07/21 05:15:49;;;;;;;14.77;10.93;;;;;;;19.17;81.12;101648.22;5020984;28;20288;-45
2022/07/21 05:18:14;;;;;;;12.57;10.95;;;;;;;19.17;81.51;101651.75;5030906;28;20638;-45
2022/07/21 05:20:39;;;;;;;14.00;10.53;;;;;;;19.22;80.79;101635.13;5037833;28;20057;-45
2022/07/21 05:23:05;;;;;;;12.13;10.82;;;;;;;19.19;79.66;101646.22;5031097;28;20304;-46
2022/07/21 05:25:31;;;;;;;14.63;10.48;;;;;;;19.17;79.92;101646.38;5032404;28;20024;-46
2022/07/21 05:27:57;;;;;;;14.68;10.00;;;;;;;19.19;79.55;101638.97;5035277;28;20034;-46
2022/07/21 05:30:22;;;;;;;13.65;10.43;;;;;;;19.21;80.89;101642.34;5031503;28;20026;-46
2022/07/21 05:32:48;;;;;;;15.05;10.30;;;;;;;19.21;80.43;101642.34;5043500;28;20028;-46
2022/07/21 05:35:13;;;;;;;14.82;10.18;;;;;;;19.22;80.64;101640.53;5046763;28;20028;-45
2022/07/21 05:37:39;;;;;;;12.57;9.77;;;;;;;19.23;79.64;101634.13;5032357;28;20044;-46
2022/07/21 05:40:09;;;;;;;15.77;10.13;;;;;;;19.18;80.49;101642.66;5032161;28;20049;-47
2022/07/21 05:42:35;;;;;;;14.85;10.65;;;;;;;19.17;80.70;101630.22;5023122;28;20100;-46
2022/07/21 05:45:01;;;;;;;14.57;9.80;;;;;;;19.20;80.83;101629.03;5035183;28;20030;-47
2022/07/21 05:47:26;;;;;;;14.70;10.63;;;;;;;19.17;80.16;101630.22;5036133;28;20029;-45
2022/07/21 05:49:51;;;;;;;14.10;10.90;;;;;;;19.17;81.00;101624.00;5016747;28;20037;-46
2022/07/21 05:52:17;;;;;;;14.30;10.15;;;;;;;19.24;79.87;101630.44;5036085;28;20113;-45
2022/07/21 05:54:42;;;;;;;11.98;10.40;;;;;;;19.26;80.31;101636.50;5034560;28;20086;-46
2022/07/21 05:57:07;;;;;;;16.57;11.77;;;;;;;19.28;79.84;101626.41;5033929;28;20227;-45
2022/07/21 05:59:33;;;;;;;16.27;12.10;;;;;;;19.30;80.58;101642.41;5035132;28;20368;-46
2022/07/21 06:01:58;;;;;;;16.77;12.55;;;;;;;19.31;79.45;101639.56;5017940;28;20064;-45
2022/07/21 06:04:24;;;;;;;20.27;13.23;;;;;;;19.32;79.60;101640.44;5047855;28;20328;-44
2022/07/21 06:06:49;;;;;;;20.77;13.60;;;;;;;19.38;79.69;101639.78;5034511;28;20022;-47
2022/07/21 06:09:14;;;;;;;17.55;13.40;;;;;;;19.34;79.98;101641.97;5022586;28;20100;-47
2022/07/21 06:11:40;;;;;;;20.85;14.30;;;;;;;19.40;79.20;101635.97;5013655;28;20037;-45
2022/07/21 06:14:05;;;;;;;21.13;14.30;;;;;;;19.50;79.79;101637.69;5035970;28;20037;-50
2022/07/21 06:16:31;;;;;;;24.97;15.70;;;;;;;19.57;79.02;101628.00;5057927;28;20326;-47
2022/07/21 06:18:57;;;;;;;22.98;15.95;;;;;;;19.68;79.34;101632.28;5038666;28;20371;-45
2022/07/21 06:21:22;;;;;;;24.67;15.40;;;;;;;19.85;79.11;101627.84;5022466;28;20086;-45
2022/07/21 06:23:48;;;;;;;23.58;16.33;;;;;;;20.06;78.58;101628.31;5012363;28;20021;-47
2022/07/21 06:26:13;;;;;;;24.67;16.85;;;;;;;20.20;77.15;101626.00;5029492;28;20017;-44
2022/07/21 06:28:38;;;;;;;26.42;18.08;;;;;;;20.29;76.69;101625.06;5037353;28;20105;-43
2022/07/21 06:31:04;;;;;;;26.90;17.23;;;;;;;20.34;75.64;101628.09;5032428;28;20037;-45
2022/07/21 06:33:29;;;;;;;25.20;18.35;;;;;;;20.34;76.24;101626.25;5032319;28;20272;-43
2022/07/21 06:35:54;;;;;;;25.48;17.25;;;;;;;20.40;75.87;101632.88;5034444;28;20094;-44
2022/07/21 06:38:20;;;;;;;23.80;17.52;;;;;;;20.35;75.54;101627.13;5036437;28;20037;-44
2022/07/21 06:40:45;;;;;;;27.50;17.07;;;;;;;20.41;75.30;101636.41;5037397;28;20056;-45
2022/07/21 06:43:11;;;;;;;24.15;17.05;;;;;;;20.41;74.91;101636.41;5006849;28;20284;-45
2022/07/21 06:45:37;;;;;;;23.73;17.65;;;;;;;20.45;76.72;101641.31;5032068;28;20021;-46
2022/07/21 06:48:07;;;;;;;22.65;16.98;;;;;;;20.46;74.63;101639.44;5026780;28;20121;-46
2022/07/21 06:50:33;;;;;;;22.85;16.83;;;;;;;20.47;74.87;101638.44;5026061;28;20085;-44
2022/07/21 06:52:59;;;;;;;25.50;17.02;;;;;;;20.48;74.66;101643.69;5038814;28;20049;-46
2022/07/21 06:55:24;;;;;;;22.48;16.75;;;;;;;20.50;75.18;101651.59;5028364;28;20022;-45
2022/07/21 06:57:50;;;;;;;24.17;17.73;;;;;;;20.48;75.63;101654.47;5030141;28;20029;-45
2022/07/21 07:00:16;;;;;;;25.67;16.88;;;;;;;20.49;74.64;101652.63;5030330;28;20025;-44
2022/07/21 07:02:41;;;;;;;26.92;16.85;;;;;;;20.46;74.59;101653.78;5027714;28;20018;-46
2022/07/21 07:05:07;;;;;;;22.58;16.45;;;;;;;20.45;74.84;101664.72;5039580;28;20383;-45
2022/07/21 07:07:32;;;;;;;22.70;16.02;;;;;;;20.38;75.37;101667.22;5036903;28;20093;-44
2022/07/21 07:09:59;;;;;;;28.35;16.73;;;;;;;20.32;74.49;101668.75;5038607;28;20056;-44
2022/07/21 07:12:24;;;;;;;25.02;16.52;;;;;;;20.25;75.43;101666.84;5030534;28;20053;-46
2022/07/21 07:14:50;;;;;;;21.92;16.25;;;;;;;20.19;75.23;101662.09;5040889;28;20594;-46
2022/07/21 07:17:18;;;;;;;23.77;16.98;;;;;;;20.20;74.76;101667.34;5045545;28;20030;-45
2022/07/21 07:19:43;;;;;;;23.73;16.08;;;;;;;20.22;75.45;101651.84;5041964;28;20072;-47
2022/07/21 07:22:09;;;;;;;26.15;16.52;;;;;;;20.19;75.43;101664.81;5028715;28;20061;-45
2022/07/21 07:24:34;;;;;;;21.33;16.67;;;;;;;20.21;75.41;101665.47;5037548;28;20029;-46
2022/07/21 07:26:59;;;;;;;25.10;16.70;;;;;;;20.22;75.58;101661.78;5041020;28;20037;-45
2022/07/21 07:29:24;;;;;;;23.98;16.13;;;;;;;20.24;75.69;101663.31;5039253;28;20339;-45
2022/07/21 07:31:50;;;;;;;25.63;17.02;;;;;;;20.21;75.81;101654.69;5041517;28;20032;-45
2022/07/21 07:34:15;;;;;;;21.50;15.87;;;;;;;20.20;76.54;101663.78;5022866;28;20030;-45
2022/07/21 07:36:40;;;;;;;20.55;14.80;;;;;;;20.21;76.43;101666.31;5040572;28;20347;-48
2022/07/21 07:39:06;;;;;;;19.03;15.20;;;;;;;20.16;78.02;101668.66;5037315;28;20030;-46
2022/07/21 07:41:31;;;;;;;19.77;14.47;;;;;;;20.08;77.86;101666.75;5039743;28;20853;-46
2022/07/21 07:43:59;;;;;;;20.77;15.23;;;;;;;20.04;78.64;101668.09;5015605;28;20308;-45
2022/07/21 07:46:25;;;;;;;15.85;12.73;;;;;;;19.95;79.88;101666.34;5032298;28;20030;-46
2022/07/21 07:48:51;;;;;;;15.98;13.38;;;;;;;19.87;81.15;101675.22;5037912;28;20034;-47
2022/07/21 07:51:16;;;;;;;15.02;13.20;;;;;;;19.86;80.58;101670.84;5042280;28;20386;-45
2022/07/21 07:53:42;;;;;;;17.58;12.68;;;;;;;19.81;81.40;101670.47;5042344;28;20088;-45
2022/07/21 07:56:07;;;;;;;12.50;10.67;;;;;;;19.80;81.72;101670.63;5043719;28;20087;-44
2022/07/21 07:58:34;;;;;;;10.57;9.48;;;;;;;19.76;79.95;101676.31;5040768;28;20283;-45
2022/07/21 08:00:59;;;;;;;12.07;9.70;;;;;;;19.64;82.22;101682.94;5040316;28;20064;-48
2022/07/21 08:03:25;;;;;;;14.57;10.60;;;;;;;19.61;82.81;101669.78;5025205;28;20034;-46
2022/07/21 08:05:52;;;;;;;9.68;8.68;;;;;;;19.58;82.19;101670.09;5026115;28;20025;-47
2022/07/21 08:08:18;;;;;;;11.82;8.90;;;;;;;19.51;82.59;101680.66;5029354;28;20080;-47
2022/07/21 08:10:45;;;;;;;12.63;8.68;;;;;;;19.48;83.45;101678.25;5035538;28;20037;-44
2022/07/21 08:13:16;;;;;;;11.68;8.77;;;;;;;19.46;83.23;101674.06;5019958;28;20378;-45
2022/07/21 08:15:42;;;;;;;8.93;7.63;;;;;;;19.41;84.35;101674.50;5037579;28;20093;-46
2022/07/21 08:18:08;;;;;;;9.00;7.88;;;;;;;19.44;84.36;101676.06;5036648;28;20041;-47
2022/07/21 08:20:34;;;;;;;8.13;7.32;;;;;;;19.39;84.00;101674.66;5034671;28;20083;-45
2022/07/21 08:22:59;;;;;;;8.40;7.53;;;;;;;19.39;85.28;101677.34;5037688;28;20025;-44
2022/07/21 08:25:25;;;;;;;7.57;6.88;;;;;;;19.35;83.93;101675.13;5034562;28;20041;-46
2022/07/21 08:27:50;;;;;;;9.23;7.03;;;;;;;19.30;84.87;101678.31;5033066;28;20103;-46
2022/07/21 08:30:15;;;;;;;7.78;6.50;;;;;;;19.33;83.74;101677.13;5033469;28;20088;-46
2022/07/21 08:32:41;;;;;;;7.57;6.75;;;;;;;19.31;85.03;101679.97;5033554;28;20032;-46
2022/07/21 08:35:08;;;;;;;8.15;6.88;;;;;;;19.30;84.35;101681.00;5034191;28;20033;-45
2022/07/21 08:37:35;;;;;;;8.98;7.35;;;;;;;19.25;85.26;101680.59;5041944;28;20022;-44
2022/07/21 08:40:03;;;;;;;7.97;7.18;;;;;;;19.22;86.32;101676.38;5034332;28;20092;-45
2022/07/21 08:42:29;;;;;;;8.02;7.25;;;;;;;19.22;85.82;101684.44;5014493;28;20108;-45
2022/07/21 08:44:54;;;;;;;8.30;7.50;;;;;;;19.31;87.25;101682.66;5034284;28;20021;-46
2022/07/21 08:47:20;;;;;;;8.77;7.90;;;;;;;19.34;86.36;101684.22;5032588;28;20530;-44
2022/07/21 08:49:46;;;;;;;9.05;8.15;;;;;;;19.34;87.06;101689.63;5035080;28;20368;-47
2022/07/21 08:52:12;;;;;;;9.35;8.27;;;;;;;19.35;85.72;101675.13;5025249;28;20040;-44
2022/07/21 08:54:38;;;;;;;11.40;8.45;;;;;;;19.36;87.06;101688.44;5014867;28;20108;-45
2022/07/21 08:57:03;;;;;;;9.60;8.52;;;;;;;19.39;86.76;101685.44;5026770;28;20081;-46
2022/07/21 08:59:29;;;;;;;9.35;8.45;;;;;;;19.36;86.68;101685.75;5018880;28;20037;-45
2022/07/21 09:01:54;;;;;;;10.13;9.13;;;;;;;19.35;86.90;101688.59;5028930;28;20022;-46
2022/07/21 09:04:34;;;;;;;9.57;8.70;;;;;;;19.39;85.88;101690.81;5032980;28;20026;-46
2022/07/21 09:07:04;;;;;;;9.38;8.38;;;;;;;19.34;87.55;101685.06;5035187;28;20039;-46
2022/07/21 09:09:31;;;;;;;9.35;7.70;;;;;;;19.33;86.51;101687.91;5033540;28;20067;-47
2022/07/21 09:11:58;;;;;;;8.55;7.82;;;;;;;19.29;88.36;101691.94;5019548;28;20017;-50
2022/07/21 09:14:26;;;;;;;9.10;8.25;;;;;;;19.30;87.83;101688.22;5049020;28;20005;-46
2022/07/21 09:17:03;;;;;;;9.98;7.97;;;;;;;19.31;87.72;101692.63;5043534;28;20029;-46
2022/07/21 09:19:38;;;;;;;9.50;8.52;;;;;;;19.35;87.86;101692.16;5037913;28;20489;-45
2022/07/21 09:22:11;;;;;;;8.55;7.75;;;;;;;19.37;87.38;101695.53;5038213;28;20029;-46
2022/07/21 09:24:40;;;;;;;8.32;7.55;;;;;;;19.38;88.28;101697.22;5036490;28;20033;-44
2022/07/21 09:27:15;;;;;;;8.57;7.80;;;;;;;19.38;88.41;101702.63;5035545;28;20112;-45
2022/07/21 09:29:51;;;;;;;8.55;7.72;;;;;;;19.40;88.99;101705.13;5034718;28;20216;-46
2022/07/21 09:32:27;;;;;;;8.48;7.43;;;;;;;19.31;89.23;101712.31;5035149;28;20075;-44
2022/07/21 09:34:53;;;;;;;7.22;6.63;;;;;;;19.28;88.57;101703.69;5034506;28;20734;-44
2022/07/21 09:37:21;;;;;;;8.15;6.10;;;;;;;19.23;89.39;101707.69;5036894;28;20044;-46
2022/07/21 09:39:52;;;;;;;6.47;5.88;;;;;;;19.23;89.40;101712.22;5035932;28;20026;-45
2022/07/21 09:42:29;;;;;;;5.28;4.85;;;;;;;19.22;87.94;101711.38;5037844;28;20053;-45
2022/07/21 09:45:03;;;;;;;5.03;4.20;;;;;;;19.21;87.06;101716.91;5037365;28;20281;-46
2022/07/21 09:47:30;;;;;;;4.53;4.13;;;;;;;19.17;86.39;101712.84;5038811;28;20089;-45
2022/07/21 09:49:57;;;;;;;4.65;4.20;;;;;;;19.12;88.42;101717.81;5038940;28;20022;-44
2022/07/21 09:52:37;;;;;;;5.03;4.63;;;;;;;19.18;87.27;101717.22;5043404;28;20103;-45
2022/07/21 09:55:10;;;;;;;9.15;4.85;;;;;;;19.07;87.78;101714.75;5019638;28;20025;-46
2022/07/21 09:57:36;;;;;;;5.47;4.32;;;;;;;19.05;88.40;101722.97;5031662;28;20127;-46
2022/07/21 10:00:05;;;;;;;4.97;4.15;;;;;;;18.98;88.49;101722.72;5038394;28;20049;-46
2022/07/21 10:02:31;;;;;;;5.40;4.50;;;;;;;19.02;88.92;101718.75;5042154;28;20038;-45
2022/07/21 10:05:09;;;;;;;5.05;4.50;;;;;;;19.00;88.33;101726.13;5041378;28;20029;-47
2022/07/21 10:07:40;;;;;;;5.85;5.35;;;;;;;18.96;88.82;101723.91;5027825;28;20388;-45
2022/07/21 10:10:06;;;;;;;5.93;5.22;;;;;;;18.93;88.50;101733.09;5041478;28;20041;-45
2022/07/21 10:12:31;;;;;;;5.88;5.38;;;;;;;18.93;88.23;101738.50;5050540;28;20032;-45
2022/07/21 10:14:57;;;;;;;6.85;6.18;;;;;;;18.94;88.48;101744.75;5047594;28;20462;-46
2022/07/21 10:17:24;;;;;;;7.00;6.30;;;;;;;18.95;89.89;101741.91;5053669;28;20045;-44
2022/07/21 10:20:07;;;;;;;6.47;5.88;;;;;;;18.95;88.76;101741.91;5060177;28;20053;-45
2022/07/21 10:23:11;;;;;;;8.48;5.78;;;;;;;19.00;89.12;101741.44;5058283;28;20044;-47
2022/07/21 10:25:38;;;;;;;6.78;5.88;;;;;;;18.99;89.73;101745.97;5050718;28;20037;-44
2022/07/21 10:28:23;;;;;;;6.93;6.20;;;;;;;19.01;89.51;101757.44;5053146;28;20048;-45
2022/07/21 10:30:56;;;;;;;7.43;6.50;;;;;;;19.03;90.86;101752.78;5051266;28;20028;-44
2022/07/21 10:33:44;;;;;;;8.13;6.90;;;;;;;19.16;89.64;101756.94;5054382;28;20018;-46
2022/07/21 10:36:33;;;;;;;8.32;7.10;;;;;;;19.15;89.44;101760.59;5042923;28;20025;-47
2022/07/21 10:39:10;;;;;;;8.15;7.03;;;;;;;19.22;88.76;101765.25;5038550;28;20135;-46
2022/07/21 10:41:44;;;;;;;9.38;7.05;;;;;;;19.28;89.89;101758.41;5054466;28;20128;-46
2022/07/21 10:44:35;;;;;;;10.40;7.35;;;;;;;19.31;88.48;101765.34;5055932;28;20021;-46
2022/07/21 10:47:05;;;;;;;7.93;7.05;;;;;;;19.26;89.16;101764.94;5048002;28;20097;-46
2022/07/21 10:49:57;;;;;;;8.13;6.20;;;;;;;19.28;87.67;101769.16;5052183;28;20084;-45
2022/07/21 10:52:35;;;;;;;8.15;5.93;;;;;;;19.14;87.29;101773.25;5050722;28;20101;-47
2022/07/21 10:55:26;;;;;;;9.10;6.07;;;;;;;19.10;87.42;101776.38;5056330;28;20029;-45
2022/07/21 10:58:27;;;;;;;9.10;6.57;;;;;;;19.08;87.12;101773.00;5057157;28;20057;-45
2022/07/21 11:00:58;;;;;;;10.10;5.97;;;;;;;18.93;87.83;101770.78;5053344;28;20101;-47
2022/07/21 11:03:29;;;;;;;9.25;6.35;;;;;;;18.92;87.80;101771.81;5054669;28;20041;-46
2022/07/21 11:06:06;;;;;;;7.30;6.10;;;;;;;18.89;87.13;101777.50;5055015;28;20029;-45
2022/07/21 11:08:34;;;;;;;7.38;6.30;;;;;;;18.85;87.35;101776.06;5047853;28;20522;-45
2022/07/21 11:11:25;;;;;;;9.65;6.47;;;;;;;18.89;87.77;101777.50;5056311;28;20044;-47
2022/07/21 11:14:11;;;;;;;11.13;7.20;;;;;;;18.94;89.30;101775.19;5055074;28;20029;-45
2022/07/21 11:16:58;;;;;;;10.82;7.07;;;;;;;18.95;88.65;101779.59;5054294;28;20041;-46
2022/07/21 11:19:41;;;;;;;8.85;6.32;;;;;;;19.01;87.05;101781.66;5051163;28;20089;-46